Alma, GA

2:32 AM EDT on August 19, 2017 (GMT -0400)
Bacon County | | Change Station

Elev 197 ft 31.54 °N, 82.51 °W | Updated 39 minutes ago

Partly Cloudy
Partly Cloudy
77 °F
Feels Like 77 °F
N
4
Wind Variable Wind from WSW

Today
High -- | Low -- °F
--% Chance of Precip.
Yesterday
High -- | Low -- °F
Precip. -- in
Pressure 29.97 in
Visibility 10.0 miles
Clouds Few 5000 ft
Dew Point 73 °F
Humidity 88%
Rainfall 0.00 in
Snow Depth Not available.
6:57 AM 8:08 PM
Waning Crescent, 8% visible
METAR KAMG 190553Z AUTO 25003KT 10SM FEW050 25/23 A2998 RMK AO2 SLP149 T02500228 10289 20244 58000
Pressure 29.97 in
Visibility 10.0 miles
Clouds Few 5000 ft
Dew Point 73 °F
Humidity 88%
Rainfall 0.00 in
Snow Depth Not available.
6:57 AM 8:08 PM
Waning Crescent, 8% visible
METAR KAMG 190553Z AUTO 25003KT 10SM FEW050 25/23 A2998 RMK AO2 SLP149 T02500228 10289 20244 58000

Get Severe Weather Alerts

Thanks for signing up!

Be on the lookout for a verification email in your inbox.

You'll start receiving the daily forecast at 6 AM.

×

10-Day Weather Forecast

Almanac

Astronomy

Aug. 19, 2017 Rise Set
Actual Time
Civil Twilight
Nautical Twilight
Astronomical Twilight
Moon
Length of Visible Light
Length of Day
Tomorrow will be .
, % of the Moon is Illuminated

Today's Extremes

State Highs State Lows

Community

WunderPhotos

Category 6

Welcome to Category 6. This is the collective home for Weather Underground's featured writeups by Dr. Jeff Masters (right), Bob Henson (left), Chris Burt, and other regular contributors.

Nearby

Air Quality

  Air Quality AQ Index Pollutant
Not available.

Snow Depth

Station Depth Elevation

Earthquake Activity

City Distance Mag. Time & Date
Minimum magnitude displayed is 2.5.

Coastal Water Temperatures

Place Temperature

Stations

Nearby Weather Stations

Station Location Temp. Windchill Dew Point Humidity Wind Precip. Elev Updated Type
                   

Watches & Warnings

There are currently no watches in effect.